In Rescue
 
Open Full Screen Window  High Contrast Mode
Wind Gusting 28 knots
19
March 01, 2024 1:58 PM CST
Weather Information
Wind Direction
  200 °
Wind Speed
  19 kt (22 mph)
Wind Gust
  28 kt (32 mph)
Altimeter
29.73 in
Visibility
10 SM
Temperature
13° C
55° F
Dewpoint
00° C
32° F
Humidity
41%
Sky Condition
Clear
VFR

METAR KMJQ 011958Z AUTO 20019G28KT 10SM CLR 13/00 A2973 RMK AO2

FAA Disclaimer: The data displayed is for advisory purposes only and is not to be used for flight planning or operations.